Dana Pride — WE00 — position and weather

sailwx.info

Track history (hours):
 
Tides and Currents Weather Stations Pressure Air Temp Water Temp Dewpoint Dewpoint Depression Visibility Wind Speed Wind Dir Waves Ship Positions

Dana Pride

Last reported at 2018-Feb-23 22:59 UTC. Time now 2018-Feb-24 00:52 UTC.
Position N 33°28' W 117°44'.

Type: Fishing. MMSI: 366849310.

Date/timePositionNaut miles runAvg speedWind from/ knotsBaromVisibWave heightAir tempDewpointWater temp
2018-Feb-23 22:59N 33°28' W 117°44'1 2.7
2018-Feb-23 22:27N 33°26' W 117°43'2 3.9
2018-Feb-23 22:00N 33°28' W 117°42'3 5.2
2018-Feb-23 21:30N 33°25' W 117°40'0 0.6
2018-Feb-23 21:00N 33°25' W 117°40'2 4.7
2018-Feb-23 20:31N 33°27' W 117°42'1 2.5
2018-Feb-23 19:59N 33°28' W 117°42'0 0.0
2018-Feb-23 19:30N 33°28' W 117°42'0 0.0
2018-Feb-23 19:00N 33°28' W 117°42'0 0.0
2018-Feb-23 18:30N 33°28' W 117°42'0 0.0
2018-Feb-23 18:00N 33°28' W 117°42'0 0.0
2018-Feb-23 17:30N 33°28' W 117°42'0 0.0
2018-Feb-23 17:00N 33°28' W 117°42'0 0.0
2018-Feb-23 16:28N 33°28' W 117°42'0 0.0
2018-Feb-23 16:00N 33°28' W 117°42'0 0.0
2018-Feb-23 15:30N 33°28' W 117°42'0 0.0
2018-Feb-23 15:00N 33°28' W 117°42'0 0.0
2018-Feb-23 14:30N 33°28' W 117°42'0 0.0
2018-Feb-23 13:59N 33°28' W 117°42'0 0.0
2018-Feb-23 13:30N 33°28' W 117°42'0 0.0
2018-Feb-23 13:00N 33°28' W 117°42'0 0.0
2018-Feb-23 12:28N 33°28' W 117°42'0 0.0
2018-Feb-23 12:00N 33°28' W 117°42'0 0.0
2018-Feb-23 11:30N 33°28' W 117°42'0 0.0
2018-Feb-23 11:01N 33°28' W 117°42'0 0.0
2018-Feb-23 10:14N 33°28' W 117°42'0 0.0
2018-Feb-23 09:59N 33°28' W 117°42'0 0.0
2018-Feb-23 09:29N 33°28' W 117°42'0 0.0
2018-Feb-23 09:00N 33°28' W 117°42'0 0.0
2018-Feb-23 08:29N 33°28' W 117°42'0 0.0
2018-Feb-23 08:00N 33°28' W 117°42'0 0.0
2018-Feb-23 07:29N 33°28' W 117°42'0 0.0
2018-Feb-23 07:00N 33°28' W 117°42'0 0.0
2018-Feb-23 06:30N 33°28' W 117°42'0 0.0
2018-Feb-23 06:00N 33°28' W 117°42'0 0.0
2018-Feb-23 05:30N 33°28' W 117°42'0 0.0
2018-Feb-23 05:01N 33°28' W 117°42'0 0.0
2018-Feb-23 04:30N 33°28' W 117°42'0 0.0
2018-Feb-23 04:00N 33°28' W 117°42'0 0.0
2018-Feb-23 03:31N 33°28' W 117°42'0 0.0
2018-Feb-23 03:00N 33°28' W 117°42'0 0.0
2018-Feb-23 02:30N 33°28' W 117°42'0 0.0
2018-Feb-23 02:01N 33°28' W 117°42'0 0.0
2018-Feb-23 01:30N 33°28' W 117°42'0 0.0
2018-Feb-23 01:01N 33°28' W 117°42'0 0.0
2018-Feb-23 00:28N 33°28' W 117°42'0 0.0
2018-Feb-22 23:59N 33°28' W 117°42'4 5.3
2018-Feb-22 23:20N 33°29' W 117°45'1 1.8
2018-Feb-22 22:57N 33°30' W 117°46'4 5.8
2018-Feb-22 22:14N 33°27' W 117°42'1 4.8
2018-Feb-22 22:01N 33°28' W 117°42'1 2.8
2018-Feb-22 21:29N 33°27' W 117°43'1 2.2
2018-Feb-22 20:54N 33°28' W 117°45'1 3.1
2018-Feb-22 20:29N 33°27' W 117°43'2 3.3
2018-Feb-22 19:59N 33°28' W 117°42'1 1.9
2018-Feb-22 19:30N 33°27' W 117°42'1 1.1
2018-Feb-22 18:47N 33°27' W 117°43'1 1.5
2018-Feb-22 18:25N 33°27' W 117°43'1 3.4
2018-Feb-22 18:00N 33°26' W 117°41'1 2.7
2018-Feb-22 17:30N 33°28' W 117°42'0 0.0
2018-Feb-22 16:57N 33°28' W 117°42'0 0.0
2018-Feb-22 16:29N 33°28' W 117°42'0 0.0
2018-Feb-22 16:00N 33°28' W 117°42'0 0.0
2018-Feb-22 15:30N 33°28' W 117°42'0 0.0
2018-Feb-22 14:58N 33°28' W 117°42'0 0.0
2018-Feb-22 14:30N 33°28' W 117°42'0 0.0
2018-Feb-22 13:59N 33°28' W 117°42'0 0.0
2018-Feb-22 13:30N 33°28' W 117°42'0 0.0
2018-Feb-22 13:00N 33°28' W 117°42'0 0.0
2018-Feb-22 12:28N 33°28' W 117°42'0 0.0
2018-Feb-22 12:00N 33°28' W 117°42'0 0.0
2018-Feb-22 11:30N 33°28' W 117°42'0 0.0
2018-Feb-22 11:00N 33°28' W 117°42'0 0.0
2018-Feb-22 10:30N 33°28' W 117°42'0 0.0
2018-Feb-22 09:59N 33°28' W 117°42'0 0.0
2018-Feb-22 09:30N 33°28' W 117°42'0 0.0
2018-Feb-22 09:00N 33°28' W 117°42'0 0.0
2018-Feb-22 08:30N 33°28' W 117°42'0 0.0
2018-Feb-22 08:00N 33°28' W 117°42'0 0.0
2018-Feb-22 07:29N 33°28' W 117°42'0 0.0
2018-Feb-22 07:00N 33°28' W 117°42'0 0.0
2018-Feb-22 06:30N 33°28' W 117°42'0 0.0
2018-Feb-22 06:00N 33°28' W 117°42'0 0.0
2018-Feb-22 05:30N 33°28' W 117°42'0 0.0
2018-Feb-22 04:59N 33°28' W 117°42'0 0.0
2018-Feb-22 04:30N 33°28' W 117°42'0 0.0
2018-Feb-22 03:58N 33°28' W 117°42'0 0.0
2018-Feb-22 03:30N 33°28' W 117°42'0 0.0
2018-Feb-22 02:59N 33°28' W 117°42'0 0.0
2018-Feb-22 02:28N 33°28' W 117°42'0 0.0
2018-Feb-22 02:00N 33°28' W 117°42'0 0.0
2018-Feb-22 01:30N 33°28' W 117°42'0 0.0
2018-Feb-22 01:00N 33°28' W 117°42'0 0.0
2018-Feb-22 00:30N 33°28' W 117°42'0 0.0
2018-Feb-22 00:00N 33°28' W 117°42'4 8.5
2018-Feb-21 23:30N 33°24' W 117°39'3 0.1
2018-Feb-21 01:37N 33°26' W 117°42'0 4.0
2018-Feb-21 01:30N 33°26' W 117°42'4 7.6
2018-Feb-21 00:57N 33°29' W 117°45'1 1.9
2018-Feb-21 00:29N 33°28' W 117°44'2 4.8
2018-Feb-21 00:00N 33°28' W 117°42'2 3.6
2018-Feb-20 23:28N 33°26' W 117°43'2 4.9
2018-Feb-20 22:57N 33°26' W 117°40'1 2.3
2018-Feb-20 22:29N 33°26' W 117°41'1 2.3
2018-Feb-20 21:57N 33°28' W 117°42'4 2.6
2018-Feb-20 20:36N 33°30' W 117°45'211.3
2018-Feb-20 20:27N 33°28' W 117°44'2 4.8
2018-Feb-20 20:00N 33°28' W 117°42'0 0.0
2018-Feb-20 19:20N 33°28' W 117°42'0 0.0
2018-Feb-20 19:00N 33°28' W 117°42'0 0.0
2018-Feb-20 18:24N 33°28' W 117°42'0 0.0
2018-Feb-20 17:58N 33°28' W 117°42'0 0.0
2018-Feb-20 17:29N 33°28' W 117°42'0 0.0
2018-Feb-20 16:57N 33°28' W 117°42'0 0.0
2018-Feb-20 16:30N 33°28' W 117°42'0 0.0
2018-Feb-20 16:00N 33°28' W 117°42'0 0.0
2018-Feb-20 15:30N 33°28' W 117°42'0 0.0
2018-Feb-20 15:00N 33°28' W 117°42'0 0.0
2018-Feb-20 14:30N 33°28' W 117°42'0 0.0
2018-Feb-20 14:01N 33°28' W 117°42'0 0.0
2018-Feb-20 13:30N 33°28' W 117°42'0 0.0
2018-Feb-20 13:00N 33°28' W 117°42'0 0.0
2018-Feb-20 12:29N 33°28' W 117°42'0 0.0
2018-Feb-20 12:00N 33°28' W 117°42'0 0.0
2018-Feb-20 11:30N 33°28' W 117°42'0 0.0
2018-Feb-20 11:00N 33°28' W 117°42'0 0.0
2018-Feb-20 10:29N 33°28' W 117°42'0 0.0
2018-Feb-20 10:00N 33°28' W 117°42'0 0.0
2018-Feb-20 09:29N 33°28' W 117°42'0 0.0
2018-Feb-20 08:59N 33°28' W 117°42'0 0.0
2018-Feb-20 08:30N 33°28' W 117°42'0 0.0
2018-Feb-20 08:01N 33°28' W 117°42'0 0.0
2018-Feb-20 07:28N 33°28' W 117°42'0 0.0
2018-Feb-20 07:00N 33°28' W 117°42'0 0.0
2018-Feb-20 06:30N 33°28' W 117°42'0 0.0
2018-Feb-20 06:00N 33°28' W 117°42'0 0.0
2018-Feb-20 05:27N 33°28' W 117°42'0 0.0
2018-Feb-20 05:00N 33°28' W 117°42'0 0.0
2018-Feb-20 04:31N 33°28' W 117°42'0 0.0
2018-Feb-20 03:57N 33°28' W 117°42'0 0.0
2018-Feb-20 03:25N 33°28' W 117°42'0 0.0
2018-Feb-20 03:00N 33°28' W 117°42'0 0.0
2018-Feb-20 02:25N 33°28' W 117°42'0 0.0
2018-Feb-20 02:00N 33°28' W 117°42'0 0.0
2018-Feb-20 01:28N 33°28' W 117°42'0 0.0
2018-Feb-20 01:00N 33°28' W 117°42'0 0.0
2018-Feb-20 00:29N 33°28' W 117°42'0 0.0
2018-Feb-20 00:00N 33°28' W 117°42'0 0.0
2018-Feb-19 23:29N 33°28' W 117°42'0 0.0
2018-Feb-19 22:59N 33°28' W 117°42'0 0.0
2018-Feb-19 22:29N 33°28' W 117°42'0 0.0
2018-Feb-19 22:00N 33°28' W 117°42'0 0.0
2018-Feb-19 21:25N 33°28' W 117°42'0 0.0
2018-Feb-19 20:58N 33°28' W 117°42'0 0.0
2018-Feb-19 20:29N 33°28' W 117°42'0 0.0
2018-Feb-19 19:58N 33°28' W 117°42'0 0.0
2018-Feb-19 19:30N 33°28' W 117°42'0 0.0
2018-Feb-19 18:57N 33°28' W 117°42'0 0.0
2018-Feb-19 18:27N 33°28' W 117°42'0 0.0
2018-Feb-19 17:59N 33°28' W 117°42'0 0.0
2018-Feb-19 17:29N 33°28' W 117°42'0 0.0
2018-Feb-19 16:59N 33°28' W 117°42'0 0.0
2018-Feb-19 16:28N 33°28' W 117°42'0 0.0
2018-Feb-19 16:00N 33°28' W 117°42'0 0.0
2018-Feb-19 15:31N 33°28' W 117°42'0 0.0
2018-Feb-19 15:00N 33°28' W 117°42'0 0.0
2018-Feb-19 14:21N 33°28' W 117°42'0 0.0
2018-Feb-19 13:57N 33°28' W 117°42'0 0.0
2018-Feb-19 13:27N 33°28' W 117°42'0 0.0
2018-Feb-19 13:00N 33°28' W 117°42'0 0.0
2018-Feb-19 12:31N 33°28' W 117°42'0 0.0
2018-Feb-19 12:00N 33°28' W 117°42'0 0.0
2018-Feb-19 11:30N 33°28' W 117°42'0 0.0
2018-Feb-19 11:00N 33°28' W 117°42'0 0.0
2018-Feb-19 10:30N 33°28' W 117°42'0 0.0
2018-Feb-19 10:00N 33°28' W 117°42'0 0.0
2018-Feb-19 09:30N 33°28' W 117°42'0 0.0
2018-Feb-19 08:58N 33°28' W 117°42'0 0.0
2018-Feb-19 08:24N 33°28' W 117°42'0 0.0
2018-Feb-19 08:00N 33°28' W 117°42'0 0.0
2018-Feb-19 07:30N 33°28' W 117°42'0 0.0
2018-Feb-19 06:58N 33°28' W 117°42'0 0.0
2018-Feb-19 06:27N 33°28' W 117°42'0 0.0
2018-Feb-19 05:58N 33°28' W 117°42'0 0.0
2018-Feb-19 05:30N 33°28' W 117°42'0 0.0
2018-Feb-19 04:59N 33°28' W 117°42'0 0.0
2018-Feb-19 04:27N 33°28' W 117°42'0 0.0
2018-Feb-19 03:59N 33°28' W 117°42'0 0.0
2018-Feb-19 03:30N 33°28' W 117°42'0 0.0
2018-Feb-19 03:00N 33°28' W 117°42'0 0.0
2018-Feb-19 02:27N 33°28' W 117°42'0 0.0
2018-Feb-19 02:00N 33°28' W 117°42'0 0.0
2018-Feb-19 01:29N 33°28' W 117°42'1 2.6
2018-Feb-19 00:58N 33°27' W 117°40'1 2.9
2018-Feb-19 00:31N 33°28' W 117°42'3 5.5
2018-Feb-19 00:00N 33°25' W 117°40'3 5.1
2018-Feb-18 23:30N 33°23' W 117°39'1 2.5
2018-Feb-18 22:59N 33°24' W 117°38'4 7.5
2018-Feb-18 22:31N 33°26' W 117°41'1 2.9
2018-Feb-18 22:00N 33°28' W 117°42'5 9.5
2018-Feb-18 21:30N 33°23' W 117°39'3 5.4
2018-Feb-18 21:00N 33°22' W 117°36'4 6.4
2018-Feb-18 20:27N 33°25' W 117°39'3 7.1
2018-Feb-18 19:58N 33°28' W 117°42'2 3.6
2018-Feb-18 19:26N 33°26' W 117°41'1 1.3
2018-Feb-18 18:58N 33°26' W 117°42'1 2.6
2018-Feb-18 18:30N 33°25' W 117°41'2 3.9
2018-Feb-18 17:54N 33°28' W 117°42'0 0.0
2018-Feb-18 17:30N 33°28' W 117°42'0 0.0
2018-Feb-18 16:59N 33°28' W 117°42'0 0.0
2018-Feb-18 16:29N 33°28' W 117°42'0 0.0
2018-Feb-18 16:00N 33°28' W 117°42'0 0.0
2018-Feb-18 15:30N 33°28' W 117°42'0 0.0
2018-Feb-18 14:58N 33°28' W 117°42'0 0.0
2018-Feb-18 14:30N 33°28' W 117°42'0 0.0
2018-Feb-18 14:00N 33°28' W 117°42'0 0.0
2018-Feb-18 13:30N 33°28' W 117°42'0 0.0
2018-Feb-18 12:58N 33°28' W 117°42'0 0.0
2018-Feb-18 11:37N 33°28' W 117°42'0 0.0
2018-Feb-18 11:30N 33°28' W 117°42'0 0.0
2018-Feb-18 11:00N 33°28' W 117°42'0 0.0
2018-Feb-18 10:12N 33°28' W 117°42'0 0.0
2018-Feb-18 10:00N 33°28' W 117°42'0 0.0
2018-Feb-18 09:25N 33°28' W 117°42'0 0.0
2018-Feb-18 09:00N 33°28' W 117°42'0 0.0
2018-Feb-18 08:30N 33°28' W 117°42'0 0.0
2018-Feb-18 08:01N 33°28' W 117°42'0 0.0
2018-Feb-18 07:29N 33°28' W 117°42'0 0.0
2018-Feb-18 07:00N 33°28' W 117°42'0 0.0
2018-Feb-18 06:28N 33°28' W 117°42'0 0.0
2018-Feb-18 06:00N 33°28' W 117°42'0 0.0
2018-Feb-18 05:30N 33°28' W 117°42'0 0.0
2018-Feb-18 04:58N 33°28' W 117°42'0 0.0
2018-Feb-18 04:30N 33°28' W 117°42'0 0.0
2018-Feb-18 04:00N 33°28' W 117°42'0 0.0
2018-Feb-18 03:30N 33°28' W 117°42'0 0.0
2018-Feb-18 03:00N 33°28' W 117°42'0 0.0
2018-Feb-18 02:30N 33°28' W 117°42'0 0.1
2018-Feb-18 02:00N 33°28' W 117°42'3 6.3
2018-Feb-18 01:30N 33°28' W 117°45'2 3.2
2018-Feb-18 01:00N 33°27' W 117°44'2 3.9
2018-Feb-18 00:30N 33°26' W 117°42'1 2.7
2018-Feb-18 00:00N 33°27' W 117°42'3 7.0
2018-Feb-17 23:30N 33°29' W 117°45'2 3.7
2018-Feb-17 23:00N 33°27' W 117°44'1 1.8
2018-Feb-17 22:31N 33°27' W 117°43'1 2.5
2018-Feb-17 22:01N 33°27' W 117°42'612.2
2018-Feb-17 21:30N 33°22' W 117°38'1 1.1
2018-Feb-17 21:01N 33°22' W 117°39'4 7.6
2018-Feb-17 20:30N 33°25' W 117°42'2 4.0
2018-Feb-17 19:57N 33°28' W 117°42'3 6.0
2018-Feb-17 19:30N 33°26' W 117°44'2 3.7
2018-Feb-17 19:00N 33°25' W 117°42'2 4.1
2018-Feb-17 18:30N 33°26' W 117°44'2 4.5
2018-Feb-17 18:00N 33°28' W 117°42'0 0.0
2018-Feb-17 17:30N 33°28' W 117°42'0 0.0
2018-Feb-17 17:00N 33°28' W 117°42'0 0.0
2018-Feb-17 16:30N 33°28' W 117°42'0 0.0
2018-Feb-17 16:00N 33°28' W 117°42'0 0.0
2018-Feb-17 15:30N 33°28' W 117°42'0 0.0
2018-Feb-17 14:59N 33°28' W 117°42'0 0.0
2018-Feb-17 14:30N 33°28' W 117°42'0 0.0
2018-Feb-17 14:00N 33°28' W 117°42'0 0.0
2018-Feb-17 13:30N 33°28' W 117°42'0 0.0
2018-Feb-17 13:00N 33°28' W 117°42'0 0.0
2018-Feb-17 12:29N 33°28' W 117°42'0 0.0
2018-Feb-17 12:00N 33°28' W 117°42'0 0.0
2018-Feb-17 11:30N 33°28' W 117°42'0 0.0
2018-Feb-17 11:00N 33°28' W 117°42'0 0.0
2018-Feb-17 10:30N 33°28' W 117°42'0 0.0
2018-Feb-17 10:00N 33°28' W 117°42'0 0.0
2018-Feb-17 09:30N 33°28' W 117°42'0 0.0
2018-Feb-17 09:00N 33°28' W 117°42'0 0.0
2018-Feb-17 08:30N 33°28' W 117°42'0 0.0
2018-Feb-17 08:00N 33°28' W 117°42'0 0.0
2018-Feb-17 07:30N 33°28' W 117°42'0 0.0
2018-Feb-17 06:59N 33°28' W 117°42'0 0.0
2018-Feb-17 06:30N 33°28' W 117°42'0 0.0
2018-Feb-17 06:00N 33°28' W 117°42'0 0.0
2018-Feb-17 05:30N 33°28' W 117°42'0 0.0
2018-Feb-17 05:00N 33°28' W 117°42'0 0.0
2018-Feb-17 04:30N 33°28' W 117°42'0 0.0
2018-Feb-17 04:00N 33°28' W 117°42'0 0.0
2018-Feb-17 03:30N 33°28' W 117°42'0 0.0
2018-Feb-17 03:00N 33°28' W 117°42'0 0.0
2018-Feb-17 02:30N 33°28' W 117°42'0 0.0
2018-Feb-17 01:59N 33°28' W 117°42'2 3.3
2018-Feb-17 01:30N 33°27' W 117°43'2 3.7
2018-Feb-17 01:00N 33°29' W 117°45'0 0.2
2018-Feb-17 00:30N 33°29' W 117°45'3 5.7
2018-Feb-17 00:00N 33°28' W 117°42'3 5.3
2018-Feb-16 23:30N 33°27' W 117°45'1 2.2
2018-Feb-16 23:00N 33°28' W 117°44'2 4.9
2018-Feb-16 22:30N 33°26' W 117°42'1 2.6
2018-Feb-16 22:00N 33°28' W 117°42'2 4.6
2018-Feb-16 21:30N 33°25' W 117°42'1 2.7
2018-Feb-16 21:00N 33°27' W 117°42'1 2.3
2018-Feb-16 20:30N 33°27' W 117°43'2 3.3
2018-Feb-16 20:00N 33°28' W 117°42'5 9.5
2018-Feb-16 19:30N 33°23' W 117°40'1 1.9
2018-Feb-16 19:00N 33°22' W 117°39'2 4.4
2018-Feb-16 18:30N 33°25' W 117°40'3 6.3
2018-Feb-16 18:00N 33°28' W 117°42'0 0.0
2018-Feb-16 17:30N 33°28' W 117°42'0 0.0
2018-Feb-16 16:59N 33°28' W 117°42'0 0.0
2018-Feb-16 16:30N 33°28' W 117°42'0 0.0
2018-Feb-16 16:00N 33°28' W 117°42'0 0.0
2018-Feb-16 15:30N 33°28' W 117°42'0 0.0
2018-Feb-16 15:00N 33°28' W 117°42'0 0.0
2018-Feb-16 14:30N 33°28' W 117°42'0 0.0
2018-Feb-16 14:00N 33°28' W 117°42'0 0.0
2018-Feb-16 13:30N 33°28' W 117°42'0 0.0
2018-Feb-16 13:00N 33°28' W 117°42'0 0.0
2018-Feb-16 12:30N 33°28' W 117°42'0 0.0
2018-Feb-16 12:00N 33°28' W 117°42'0 0.0
2018-Feb-16 11:30N 33°28' W 117°42'0 0.0
2018-Feb-16 10:58N 33°28' W 117°42'0 0.0
2018-Feb-16 10:28N 33°28' W 117°42'0 0.0
2018-Feb-16 10:00N 33°28' W 117°42'0 0.0
2018-Feb-16 09:29N 33°28' W 117°42'0 0.0
2018-Feb-16 09:00N 33°28' W 117°42'0 0.0
2018-Feb-16 08:30N 33°28' W 117°42'0 0.0
2018-Feb-16 08:00N 33°28' W 117°42'0 0.0
2018-Feb-16 07:29N 33°28' W 117°42'0 0.0
2018-Feb-16 07:00N 33°28' W 117°42'0 0.0
2018-Feb-16 06:30N 33°28' W 117°42'0 0.0
2018-Feb-16 06:00N 33°28' W 117°42'0 0.0
2018-Feb-16 05:30N 33°28' W 117°42'0 0.0
2018-Feb-16 05:00N 33°28' W 117°42'0 0.0
2018-Feb-16 04:30N 33°28' W 117°42'0 0.0
2018-Feb-16 04:00N 33°28' W 117°42'0 0.0
2018-Feb-16 03:30N 33°28' W 117°42'0 0.0
2018-Feb-16 03:00N 33°28' W 117°42'0 0.0
2018-Feb-16 02:30N 33°28' W 117°42'0 0.0
2018-Feb-16 02:00N 33°28' W 117°42'0 0.0
2018-Feb-16 01:29N 33°28' W 117°42'0 0.0
2018-Feb-16 01:00N 33°28' W 117°42'0 0.0
2018-Feb-16 00:30N 33°28' W 117°42'0 0.0
2018-Feb-16 00:00N 33°28' W 117°42'3 6.5
2018-Feb-15 23:30N 33°24' W 117°40'2 3.9
2018-Feb-15 23:00N 33°24' W 117°38'2 3.7
2018-Feb-15 22:30N 33°25' W 117°40'3 5.6
2018-Feb-15 22:00N 33°28' W 117°42'4 7.1
2018-Feb-15 21:30N 33°25' W 117°39'1 2.6
2018-Feb-15 21:00N 33°24' W 117°38'1 1.2
2018-Feb-15 20:29N 33°23' W 117°39'5 9.0
2018-Feb-15 19:58N 33°28' W 117°42'2 3.4
2018-Feb-15 19:30N 33°26' W 117°42'1 2.8
2018-Feb-15 19:00N 33°27' W 117°43'0 0.7
2018-Feb-15 18:30N 33°27' W 117°43'2 3.2
2018-Feb-15 18:00N 33°28' W 117°42'0 0.0
2018-Feb-15 17:30N 33°28' W 117°42'0 0.2
2018-Feb-15 17:00N 33°28' W 117°41'0 0.2
2018-Feb-15 16:30N 33°28' W 117°42'0 0.0
2018-Feb-15 16:00N 33°28' W 117°42'0 0.0
2018-Feb-15 15:30N 33°28' W 117°42'0 0.0
2018-Feb-15 14:59N 33°28' W 117°42'0 0.0
2018-Feb-15 14:29N 33°28' W 117°42'0 0.0
2018-Feb-15 13:59N 33°28' W 117°42'0 0.0
2018-Feb-15 13:28N 33°28' W 117°42'0 0.0
2018-Feb-15 13:00N 33°28' W 117°42'0 0.0
2018-Feb-15 09:44N 33°28' W 117°42'0 0.0
2018-Feb-15 09:14N 33°28' W 117°42'0 0.0
2018-Feb-15 07:38N 33°28' W 117°42'0 0.0
2018-Feb-15 07:01N 33°28' W 117°42'0 0.0
2018-Feb-15 06:50N 33°28' W 117°42'0 0.0
2018-Feb-15 06:27N 33°28' W 117°42'0 0.0
2018-Feb-15 05:58N 33°28' W 117°42'0 0.0
2018-Feb-15 05:30N 33°28' W 117°42'0 0.0
2018-Feb-15 05:00N 33°28' W 117°42'0 0.0
2018-Feb-15 04:26N 33°28' W 117°42'0 0.0
2018-Feb-15 03:59N 33°28' W 117°42'0 0.0
2018-Feb-15 03:29N 33°28' W 117°42'0 0.0
2018-Feb-15 03:00N 33°28' W 117°42'0 0.0
2018-Feb-15 02:30N 33°28' W 117°42'1 1.1
2018-Feb-15 02:00N 33°27' W 117°42'1 0.0
2018-Feb-13 23:57N 33°28' W 117°42'3 5.8
2018-Feb-13 23:28N 33°26' W 117°44'  
Track history (hours):
 
Tides and Currents Weather Stations Pressure Air Temp Water Temp Dewpoint Dewpoint Depression Visibility Wind Speed Wind Dir Waves Ship Positions

Dana Pride

Last reported at 2018-Feb-23 22:59 UTC. Time now 2018-Feb-24 00:52 UTC.
Position N 33°28' W 117°44'.

Type: Fishing. MMSI: 366849310.

Date/timePositionNaut miles runAvg speedWind from/ knotsBaromVisibWave heightAir tempDewpointWater temp
2018-Feb-23 22:59N 33°28' W 117°44'1 2.7
2018-Feb-23 22:27N 33°26' W 117°43'2 3.9
2018-Feb-23 22:00N 33°28' W 117°42'3 5.2
2018-Feb-23 21:30N 33°25' W 117°40'0 0.6
2018-Feb-23 21:00N 33°25' W 117°40'2 4.7
2018-Feb-23 20:31N 33°27' W 117°42'1 2.5
2018-Feb-23 19:59N 33°28' W 117°42'0 0.0
2018-Feb-23 19:30N 33°28' W 117°42'0 0.0
2018-Feb-23 19:00N 33°28' W 117°42'0 0.0
2018-Feb-23 18:30N 33°28' W 117°42'0 0.0
2018-Feb-23 18:00N 33°28' W 117°42'0 0.0
2018-Feb-23 17:30N 33°28' W 117°42'0 0.0
2018-Feb-23 17:00N 33°28' W 117°42'0 0.0
2018-Feb-23 16:28N 33°28' W 117°42'0 0.0
2018-Feb-23 16:00N 33°28' W 117°42'0 0.0
2018-Feb-23 15:30N 33°28' W 117°42'0 0.0
2018-Feb-23 15:00N 33°28' W 117°42'0 0.0
2018-Feb-23 14:30N 33°28' W 117°42'0 0.0
2018-Feb-23 13:59N 33°28' W 117°42'0 0.0
2018-Feb-23 13:30N 33°28' W 117°42'0 0.0
2018-Feb-23 13:00N 33°28' W 117°42'0 0.0
2018-Feb-23 12:28N 33°28' W 117°42'0 0.0
2018-Feb-23 12:00N 33°28' W 117°42'0 0.0
2018-Feb-23 11:30N 33°28' W 117°42'0 0.0
2018-Feb-23 11:01N 33°28' W 117°42'0 0.0
2018-Feb-23 10:14N 33°28' W 117°42'0 0.0
2018-Feb-23 09:59N 33°28' W 117°42'0 0.0
2018-Feb-23 09:29N 33°28' W 117°42'0 0.0
2018-Feb-23 09:00N 33°28' W 117°42'0 0.0
2018-Feb-23 08:29N 33°28' W 117°42'0 0.0
2018-Feb-23 08:00N 33°28' W 117°42'0 0.0
2018-Feb-23 07:29N 33°28' W 117°42'0 0.0
2018-Feb-23 07:00N 33°28' W 117°42'0 0.0
2018-Feb-23 06:30N 33°28' W 117°42'0 0.0
2018-Feb-23 06:00N 33°28' W 117°42'0 0.0
2018-Feb-23 05:30N 33°28' W 117°42'0 0.0
2018-Feb-23 05:01N 33°28' W 117°42'0 0.0
2018-Feb-23 04:30N 33°28' W 117°42'0 0.0
2018-Feb-23 04:00N 33°28' W 117°42'0 0.0
2018-Feb-23 03:31N 33°28' W 117°42'0 0.0
2018-Feb-23 03:00N 33°28' W 117°42'0 0.0
2018-Feb-23 02:30N 33°28' W 117°42'0 0.0
2018-Feb-23 02:01N 33°28' W 117°42'0 0.0
2018-Feb-23 01:30N 33°28' W 117°42'0 0.0
2018-Feb-23 01:01N 33°28' W 117°42'0 0.0
2018-Feb-23 00:28N 33°28' W 117°42'0 0.0
2018-Feb-22 23:59N 33°28' W 117°42'4 5.3
2018-Feb-22 23:20N 33°29' W 117°45'1 1.8
2018-Feb-22 22:57N 33°30' W 117°46'4 5.8
2018-Feb-22 22:14N 33°27' W 117°42'1 4.8
2018-Feb-22 22:01N 33°28' W 117°42'1 2.8
2018-Feb-22 21:29N 33°27' W 117°43'1 2.2
2018-Feb-22 20:54N 33°28' W 117°45'1 3.1
2018-Feb-22 20:29N 33°27' W 117°43'2 3.3
2018-Feb-22 19:59N 33°28' W 117°42'1 1.9
2018-Feb-22 19:30N 33°27' W 117°42'1 1.1
2018-Feb-22 18:47N 33°27' W 117°43'1 1.5
2018-Feb-22 18:25N 33°27' W 117°43'1 3.4
2018-Feb-22 18:00N 33°26' W 117°41'1 2.7
2018-Feb-22 17:30N 33°28' W 117°42'0 0.0
2018-Feb-22 16:57N 33°28' W 117°42'0 0.0
2018-Feb-22 16:29N 33°28' W 117°42'0 0.0
2018-Feb-22 16:00N 33°28' W 117°42'0 0.0
2018-Feb-22 15:30N 33°28' W 117°42'0 0.0
2018-Feb-22 14:58N 33°28' W 117°42'0 0.0
2018-Feb-22 14:30N 33°28' W 117°42'0 0.0
2018-Feb-22 13:59N 33°28' W 117°42'0 0.0
2018-Feb-22 13:30N 33°28' W 117°42'0 0.0
2018-Feb-22 13:00N 33°28' W 117°42'0 0.0
2018-Feb-22 12:28N 33°28' W 117°42'0 0.0
2018-Feb-22 12:00N 33°28' W 117°42'0 0.0
2018-Feb-22 11:30N 33°28' W 117°42'0 0.0
2018-Feb-22 11:00N 33°28' W 117°42'0 0.0
2018-Feb-22 10:30N 33°28' W 117°42'0 0.0
2018-Feb-22 09:59N 33°28' W 117°42'0 0.0
2018-Feb-22 09:30N 33°28' W 117°42'0 0.0
2018-Feb-22 09:00N 33°28' W 117°42'0 0.0
2018-Feb-22 08:30N 33°28' W 117°42'0 0.0
2018-Feb-22 08:00N 33°28' W 117°42'0 0.0
2018-Feb-22 07:29N 33°28' W 117°42'0 0.0
2018-Feb-22 07:00N 33°28' W 117°42'0 0.0
2018-Feb-22 06:30N 33°28' W 117°42'0 0.0
2018-Feb-22 06:00N 33°28' W 117°42'0 0.0
2018-Feb-22 05:30N 33°28' W 117°42'0 0.0
2018-Feb-22 04:59N 33°28' W 117°42'0 0.0
2018-Feb-22 04:30N 33°28' W 117°42'0 0.0
2018-Feb-22 03:58N 33°28' W 117°42'0 0.0
2018-Feb-22 03:30N 33°28' W 117°42'0 0.0
2018-Feb-22 02:59N 33°28' W 117°42'0 0.0
2018-Feb-22 02:28N 33°28' W 117°42'0 0.0
2018-Feb-22 02:00N 33°28' W 117°42'0 0.0
2018-Feb-22 01:30N 33°28' W 117°42'0 0.0
2018-Feb-22 01:00N 33°28' W 117°42'0 0.0
2018-Feb-22 00:30N 33°28' W 117°42'0 0.0
2018-Feb-22 00:00N 33°28' W 117°42'4 8.5
2018-Feb-21 23:30N 33°24' W 117°39'3 0.1
2018-Feb-21 01:37N 33°26' W 117°42'0 4.0
2018-Feb-21 01:30N 33°26' W 117°42'4 7.6
2018-Feb-21 00:57N 33°29' W 117°45'1 1.9
2018-Feb-21 00:29N 33°28' W 117°44'2 4.8
2018-Feb-21 00:00N 33°28' W 117°42'2 3.6
2018-Feb-20 23:28N 33°26' W 117°43'2 4.9
2018-Feb-20 22:57N 33°26' W 117°40'1 2.3
2018-Feb-20 22:29N 33°26' W 117°41'1 2.3
2018-Feb-20 21:57N 33°28' W 117°42'4 2.6
2018-Feb-20 20:36N 33°30' W 117°45'211.3
2018-Feb-20 20:27N 33°28' W 117°44'2 4.8
2018-Feb-20 20:00N 33°28' W 117°42'0 0.0
2018-Feb-20 19:20N 33°28' W 117°42'0 0.0
2018-Feb-20 19:00N 33°28' W 117°42'0 0.0
2018-Feb-20 18:24N 33°28' W 117°42'0 0.0
2018-Feb-20 17:58N 33°28' W 117°42'0 0.0
2018-Feb-20 17:29N 33°28' W 117°42'0 0.0
2018-Feb-20 16:57N 33°28' W 117°42'0 0.0
2018-Feb-20 16:30N 33°28' W 117°42'0 0.0
2018-Feb-20 16:00N 33°28' W 117°42'0 0.0
2018-Feb-20 15:30N 33°28' W 117°42'0 0.0
2018-Feb-20 15:00N 33°28' W 117°42'0 0.0
2018-Feb-20 14:30N 33°28' W 117°42'0 0.0
2018-Feb-20 14:01N 33°28' W 117°42'0 0.0
2018-Feb-20 13:30N 33°28' W 117°42'0 0.0
2018-Feb-20 13:00N 33°28' W 117°42'0 0.0
2018-Feb-20 12:29N 33°28' W 117°42'0 0.0
2018-Feb-20 12:00N 33°28' W 117°42'0 0.0
2018-Feb-20 11:30N 33°28' W 117°42'0 0.0
2018-Feb-20 11:00N 33°28' W 117°42'0 0.0
2018-Feb-20 10:29N 33°28' W 117°42'0 0.0
2018-Feb-20 10:00N 33°28' W 117°42'0 0.0
2018-Feb-20 09:29N 33°28' W 117°42'0 0.0
2018-Feb-20 08:59N 33°28' W 117°42'0 0.0
2018-Feb-20 08:30N 33°28' W 117°42'0 0.0
2018-Feb-20 08:01N 33°28' W 117°42'0 0.0
2018-Feb-20 07:28N 33°28' W 117°42'0 0.0
2018-Feb-20 07:00N 33°28' W 117°42'0 0.0
2018-Feb-20 06:30N 33°28' W 117°42'0 0.0
2018-Feb-20 06:00N 33°28' W 117°42'0 0.0
2018-Feb-20 05:27N 33°28' W 117°42'0 0.0
2018-Feb-20 05:00N 33°28' W 117°42'0 0.0
2018-Feb-20 04:31N 33°28' W 117°42'0 0.0
2018-Feb-20 03:57N 33°28' W 117°42'0 0.0
2018-Feb-20 03:25N 33°28' W 117°42'0 0.0
2018-Feb-20 03:00N 33°28' W 117°42'0 0.0
2018-Feb-20 02:25N 33°28' W 117°42'0 0.0
2018-Feb-20 02:00N 33°28' W 117°42'0 0.0
2018-Feb-20 01:28N 33°28' W 117°42'0 0.0
2018-Feb-20 01:00N 33°28' W 117°42'0 0.0
2018-Feb-20 00:29N 33°28' W 117°42'0 0.0
2018-Feb-20 00:00N 33°28' W 117°42'0 0.0
2018-Feb-19 23:29N 33°28' W 117°42'0 0.0
2018-Feb-19 22:59N 33°28' W 117°42'0 0.0
2018-Feb-19 22:29N 33°28' W 117°42'0 0.0
2018-Feb-19 22:00N 33°28' W 117°42'0 0.0
2018-Feb-19 21:25N 33°28' W 117°42'0 0.0
2018-Feb-19 20:58N 33°28' W 117°42'0 0.0
2018-Feb-19 20:29N 33°28' W 117°42'0 0.0
2018-Feb-19 19:58N 33°28' W 117°42'0 0.0
2018-Feb-19 19:30N 33°28' W 117°42'0 0.0
2018-Feb-19 18:57N 33°28' W 117°42'0 0.0
2018-Feb-19 18:27N 33°28' W 117°42'0 0.0
2018-Feb-19 17:59N 33°28' W 117°42'0 0.0
2018-Feb-19 17:29N 33°28' W 117°42'0 0.0
2018-Feb-19 16:59N 33°28' W 117°42'0 0.0
2018-Feb-19 16:28N 33°28' W 117°42'0 0.0
2018-Feb-19 16:00N 33°28' W 117°42'0 0.0
2018-Feb-19 15:31N 33°28' W 117°42'0 0.0
2018-Feb-19 15:00N 33°28' W 117°42'0 0.0
2018-Feb-19 14:21N 33°28' W 117°42'0 0.0
2018-Feb-19 13:57N 33°28' W 117°42'0 0.0
2018-Feb-19 13:27N 33°28' W 117°42'0 0.0
2018-Feb-19 13:00N 33°28' W 117°42'0 0.0
2018-Feb-19 12:31N 33°28' W 117°42'0 0.0
2018-Feb-19 12:00N 33°28' W 117°42'0 0.0
2018-Feb-19 11:30N 33°28' W 117°42'0 0.0
2018-Feb-19 11:00N 33°28' W 117°42'0 0.0
2018-Feb-19 10:30N 33°28' W 117°42'0 0.0
2018-Feb-19 10:00N 33°28' W 117°42'0 0.0
2018-Feb-19 09:30N 33°28' W 117°42'0 0.0
2018-Feb-19 08:58N 33°28' W 117°42'0 0.0
2018-Feb-19 08:24N 33°28' W 117°42'0 0.0
2018-Feb-19 08:00N 33°28' W 117°42'0 0.0
2018-Feb-19 07:30N 33°28' W 117°42'0 0.0
2018-Feb-19 06:58N 33°28' W 117°42'0 0.0
2018-Feb-19 06:27N 33°28' W 117°42'0 0.0
2018-Feb-19 05:58N 33°28' W 117°42'0 0.0
2018-Feb-19 05:30N 33°28' W 117°42'0 0.0
2018-Feb-19 04:59N 33°28' W 117°42'0 0.0
2018-Feb-19 04:27N 33°28' W 117°42'0 0.0
2018-Feb-19 03:59N 33°28' W 117°42'0 0.0
2018-Feb-19 03:30N 33°28' W 117°42'0 0.0
2018-Feb-19 03:00N 33°28' W 117°42'0 0.0
2018-Feb-19 02:27N 33°28' W 117°42'0 0.0
2018-Feb-19 02:00N 33°28' W 117°42'0 0.0
2018-Feb-19 01:29N 33°28' W 117°42'1 2.6
2018-Feb-19 00:58N 33°27' W 117°40'1 2.9
2018-Feb-19 00:31N 33°28' W 117°42'3 5.5
2018-Feb-19 00:00N 33°25' W 117°40'3 5.1
2018-Feb-18 23:30N 33°23' W 117°39'1 2.5
2018-Feb-18 22:59N 33°24' W 117°38'4 7.5
2018-Feb-18 22:31N 33°26' W 117°41'1 2.9
2018-Feb-18 22:00N 33°28' W 117°42'5 9.5
2018-Feb-18 21:30N 33°23' W 117°39'3 5.4
2018-Feb-18 21:00N 33°22' W 117°36'4 6.4
2018-Feb-18 20:27N 33°25' W 117°39'3 7.1
2018-Feb-18 19:58N 33°28' W 117°42'2 3.6
2018-Feb-18 19:26N 33°26' W 117°41'1 1.3
2018-Feb-18 18:58N 33°26' W 117°42'1 2.6
2018-Feb-18 18:30N 33°25' W 117°41'2 3.9
2018-Feb-18 17:54N 33°28' W 117°42'0 0.0
2018-Feb-18 17:30N 33°28' W 117°42'0 0.0
2018-Feb-18 16:59N 33°28' W 117°42'0 0.0
2018-Feb-18 16:29N 33°28' W 117°42'0 0.0
2018-Feb-18 16:00N 33°28' W 117°42'0 0.0
2018-Feb-18 15:30N 33°28' W 117°42'0 0.0
2018-Feb-18 14:58N 33°28' W 117°42'0 0.0
2018-Feb-18 14:30N 33°28' W 117°42'0 0.0
2018-Feb-18 14:00N 33°28' W 117°42'0 0.0
2018-Feb-18 13:30N 33°28' W 117°42'0 0.0
2018-Feb-18 12:58N 33°28' W 117°42'0 0.0
2018-Feb-18 11:37N 33°28' W 117°42'0 0.0
2018-Feb-18 11:30N 33°28' W 117°42'0 0.0
2018-Feb-18 11:00N 33°28' W 117°42'0 0.0
2018-Feb-18 10:12N 33°28' W 117°42'0 0.0
2018-Feb-18 10:00N 33°28' W 117°42'0 0.0
2018-Feb-18 09:25N 33°28' W 117°42'0 0.0
2018-Feb-18 09:00N 33°28' W 117°42'0 0.0
2018-Feb-18 08:30N 33°28' W 117°42'0 0.0
2018-Feb-18 08:01N 33°28' W 117°42'0 0.0
2018-Feb-18 07:29N 33°28' W 117°42'0 0.0
2018-Feb-18 07:00N 33°28' W 117°42'0 0.0
2018-Feb-18 06:28N 33°28' W 117°42'0 0.0
2018-Feb-18 06:00N 33°28' W 117°42'0 0.0
2018-Feb-18 05:30N 33°28' W 117°42'0 0.0
2018-Feb-18 04:58N 33°28' W 117°42'0 0.0
2018-Feb-18 04:30N 33°28' W 117°42'0 0.0
2018-Feb-18 04:00N 33°28' W 117°42'0 0.0
2018-Feb-18 03:30N 33°28' W 117°42'0 0.0
2018-Feb-18 03:00N 33°28' W 117°42'0 0.0
2018-Feb-18 02:30N 33°28' W 117°42'0 0.1
2018-Feb-18 02:00N 33°28' W 117°42'3 6.3
2018-Feb-18 01:30N 33°28' W 117°45'2 3.2
2018-Feb-18 01:00N 33°27' W 117°44'2 3.9
2018-Feb-18 00:30N 33°26' W 117°42'1 2.7
2018-Feb-18 00:00N 33°27' W 117°42'3 7.0
2018-Feb-17 23:30N 33°29' W 117°45'2 3.7
2018-Feb-17 23:00N 33°27' W 117°44'1 1.8
2018-Feb-17 22:31N 33°27' W 117°43'1 2.5
2018-Feb-17 22:01N 33°27' W 117°42'612.2
2018-Feb-17 21:30N 33°22' W 117°38'1 1.1
2018-Feb-17 21:01N 33°22' W 117°39'4 7.6
2018-Feb-17 20:30N 33°25' W 117°42'2 4.0
2018-Feb-17 19:57N 33°28' W 117°42'3 6.0
2018-Feb-17 19:30N 33°26' W 117°44'2 3.7
2018-Feb-17 19:00N 33°25' W 117°42'2 4.1
2018-Feb-17 18:30N 33°26' W 117°44'2 4.5
2018-Feb-17 18:00N 33°28' W 117°42'0 0.0
2018-Feb-17 17:30N 33°28' W 117°42'0 0.0
2018-Feb-17 17:00N 33°28' W 117°42'0 0.0
2018-Feb-17 16:30N 33°28' W 117°42'0 0.0
2018-Feb-17 16:00N 33°28' W 117°42'0 0.0
2018-Feb-17 15:30N 33°28' W 117°42'0 0.0
2018-Feb-17 14:59N 33°28' W 117°42'0 0.0
2018-Feb-17 14:30N 33°28' W 117°42'0 0.0
2018-Feb-17 14:00N 33°28' W 117°42'0 0.0
2018-Feb-17 13:30N 33°28' W 117°42'0 0.0
2018-Feb-17 13:00N 33°28' W 117°42'0 0.0
2018-Feb-17 12:29N 33°28' W 117°42'0 0.0
2018-Feb-17 12:00N 33°28' W 117°42'0 0.0
2018-Feb-17 11:30N 33°28' W 117°42'0 0.0
2018-Feb-17 11:00N 33°28' W 117°42'0 0.0
2018-Feb-17 10:30N 33°28' W 117°42'0 0.0
2018-Feb-17 10:00N 33°28' W 117°42'0 0.0
2018-Feb-17 09:30N 33°28' W 117°42'0 0.0
2018-Feb-17 09:00N 33°28' W 117°42'0 0.0
2018-Feb-17 08:30N 33°28' W 117°42'0 0.0
2018-Feb-17 08:00N 33°28' W 117°42'0 0.0
2018-Feb-17 07:30N 33°28' W 117°42'0 0.0
2018-Feb-17 06:59N 33°28' W 117°42'0 0.0
2018-Feb-17 06:30N 33°28' W 117°42'0 0.0
2018-Feb-17 06:00N 33°28' W 117°42'0 0.0
2018-Feb-17 05:30N 33°28' W 117°42'0 0.0
2018-Feb-17 05:00N 33°28' W 117°42'0 0.0
2018-Feb-17 04:30N 33°28' W 117°42'0 0.0
2018-Feb-17 04:00N 33°28' W 117°42'0 0.0
2018-Feb-17 03:30N 33°28' W 117°42'0 0.0
2018-Feb-17 03:00N 33°28' W 117°42'0 0.0
2018-Feb-17 02:30N 33°28' W 117°42'0 0.0
2018-Feb-17 01:59N 33°28' W 117°42'2 3.3
2018-Feb-17 01:30N 33°27' W 117°43'2 3.7
2018-Feb-17 01:00N 33°29' W 117°45'0 0.2
2018-Feb-17 00:30N 33°29' W 117°45'3 5.7
2018-Feb-17 00:00N 33°28' W 117°42'3 5.3
2018-Feb-16 23:30N 33°27' W 117°45'1 2.2
2018-Feb-16 23:00N 33°28' W 117°44'2 4.9
2018-Feb-16 22:30N 33°26' W 117°42'1 2.6
2018-Feb-16 22:00N 33°28' W 117°42'2 4.6
2018-Feb-16 21:30N 33°25' W 117°42'1 2.7
2018-Feb-16 21:00N 33°27' W 117°42'1 2.3
2018-Feb-16 20:30N 33°27' W 117°43'2 3.3
2018-Feb-16 20:00N 33°28' W 117°42'5 9.5
2018-Feb-16 19:30N 33°23' W 117°40'1 1.9
2018-Feb-16 19:00N 33°22' W 117°39'2 4.4
2018-Feb-16 18:30N 33°25' W 117°40'3 6.3
2018-Feb-16 18:00N 33°28' W 117°42'0 0.0
2018-Feb-16 17:30N 33°28' W 117°42'0 0.0
2018-Feb-16 16:59N 33°28' W 117°42'0 0.0
2018-Feb-16 16:30N 33°28' W 117°42'0 0.0
2018-Feb-16 16:00N 33°28' W 117°42'0 0.0
2018-Feb-16 15:30N 33°28' W 117°42'0 0.0
2018-Feb-16 15:00N 33°28' W 117°42'0 0.0
2018-Feb-16 14:30N 33°28' W 117°42'0 0.0
2018-Feb-16 14:00N 33°28' W 117°42'0 0.0
2018-Feb-16 13:30N 33°28' W 117°42'0 0.0
2018-Feb-16 13:00N 33°28' W 117°42'0 0.0
2018-Feb-16 12:30N 33°28' W 117°42'0 0.0
2018-Feb-16 12:00N 33°28' W 117°42'0 0.0
2018-Feb-16 11:30N 33°28' W 117°42'0 0.0
2018-Feb-16 10:58N 33°28' W 117°42'0 0.0
2018-Feb-16 10:28N 33°28' W 117°42'0 0.0
2018-Feb-16 10:00N 33°28' W 117°42'0 0.0
2018-Feb-16 09:29N 33°28' W 117°42'0 0.0
2018-Feb-16 09:00N 33°28' W 117°42'0 0.0
2018-Feb-16 08:30N 33°28' W 117°42'0 0.0
2018-Feb-16 08:00N 33°28' W 117°42'0 0.0
2018-Feb-16 07:29N 33°28' W 117°42'0 0.0
2018-Feb-16 07:00N 33°28' W 117°42'0 0.0
2018-Feb-16 06:30N 33°28' W 117°42'0 0.0
2018-Feb-16 06:00N 33°28' W 117°42'0 0.0
2018-Feb-16 05:30N 33°28' W 117°42'0 0.0
2018-Feb-16 05:00N 33°28' W 117°42'0 0.0
2018-Feb-16 04:30N 33°28' W 117°42'0 0.0
2018-Feb-16 04:00N 33°28' W 117°42'0 0.0
2018-Feb-16 03:30N 33°28' W 117°42'0 0.0
2018-Feb-16 03:00N 33°28' W 117°42'0 0.0
2018-Feb-16 02:30N 33°28' W 117°42'0 0.0
2018-Feb-16 02:00N 33°28' W 117°42'0 0.0
2018-Feb-16 01:29N 33°28' W 117°42'0 0.0
2018-Feb-16 01:00N 33°28' W 117°42'0 0.0
2018-Feb-16 00:30N 33°28' W 117°42'0 0.0
2018-Feb-16 00:00N 33°28' W 117°42'3 6.5
2018-Feb-15 23:30N 33°24' W 117°40'2 3.9
2018-Feb-15 23:00N 33°24' W 117°38'2 3.7
2018-Feb-15 22:30N 33°25' W 117°40'3 5.6
2018-Feb-15 22:00N 33°28' W 117°42'4 7.1
2018-Feb-15 21:30N 33°25' W 117°39'1 2.6
2018-Feb-15 21:00N 33°24' W 117°38'1 1.2
2018-Feb-15 20:29N 33°23' W 117°39'5 9.0
2018-Feb-15 19:58N 33°28' W 117°42'2 3.4
2018-Feb-15 19:30N 33°26' W 117°42'1 2.8
2018-Feb-15 19:00N 33°27' W 117°43'0 0.7
2018-Feb-15 18:30N 33°27' W 117°43'2 3.2
2018-Feb-15 18:00N 33°28' W 117°42'0 0.0
2018-Feb-15 17:30N 33°28' W 117°42'0 0.2
2018-Feb-15 17:00N 33°28' W 117°41'0 0.2
2018-Feb-15 16:30N 33°28' W 117°42'0 0.0
2018-Feb-15 16:00N 33°28' W 117°42'0 0.0
2018-Feb-15 15:30N 33°28' W 117°42'0 0.0
2018-Feb-15 14:59N 33°28' W 117°42'0 0.0
2018-Feb-15 14:29N 33°28' W 117°42'0 0.0
2018-Feb-15 13:59N 33°28' W 117°42'0 0.0
2018-Feb-15 13:28N 33°28' W 117°42'0 0.0
2018-Feb-15 13:00N 33°28' W 117°42'0 0.0
2018-Feb-15 09:44N 33°28' W 117°42'0 0.0
2018-Feb-15 09:14N 33°28' W 117°42'0 0.0
2018-Feb-15 07:38N 33°28' W 117°42'0 0.0
2018-Feb-15 07:01N 33°28' W 117°42'0 0.0
2018-Feb-15 06:50N 33°28' W 117°42'0 0.0
2018-Feb-15 06:27N 33°28' W 117°42'0 0.0
2018-Feb-15 05:58N 33°28' W 117°42'0 0.0
2018-Feb-15 05:30N 33°28' W 117°42'0 0.0
2018-Feb-15 05:00N 33°28' W 117°42'0 0.0
2018-Feb-15 04:26N 33°28' W 117°42'0 0.0
2018-Feb-15 03:59N 33°28' W 117°42'0 0.0
2018-Feb-15 03:29N 33°28' W 117°42'0 0.0
2018-Feb-15 03:00N 33°28' W 117°42'0 0.0
2018-Feb-15 02:30N 33°28' W 117°42'1 1.1
2018-Feb-15 02:00N 33°27' W 117°42'1 0.0
2018-Feb-13 23:57N 33°28' W 117°42'3 5.8
2018-Feb-13 23:28N 33°26' W 117°44'  

Dump ship's entire track history